Time;durP1;ratioP1;P1;durP2;ratioP2;P2;SDS_P1;SDS_P2;PMS_P1;PMS_P2;Temp;Humidity;BMP_temperature;BMP_pressure;BME280_temperature;BME280_humidity;BME280_pressure;Samples;Min_cycle;Max_cycle;Signal;HPM_P1;HPM_P2
2022/08/27 00:01:20;;;;;;;18.38;2.15;;;22.50;74.10;;;;;;5069024;28;20115;-82
2022/08/27 00:03:46;;;;;;;6.43;1.50;;;22.40;74.50;;;;;;5069570;28;20024;-83
2022/08/27 00:06:14;;;;;;;10.27;2.25;;;22.30;75.20;;;;;;5068757;28;20099;-83
2022/08/27 00:08:41;;;;;;;10.05;2.10;;;22.20;75.30;;;;;;5068669;28;20032;-83
2022/08/27 00:11:07;;;;;;;12.60;1.73;;;22.20;75.60;;;;;;5067661;28;20028;-82
2022/08/27 00:13:34;;;;;;;9.07;1.85;;;22.10;76.80;;;;;;5068187;28;20020;-81
2022/08/27 00:16:00;;;;;;;12.85;2.30;;;22.10;76.00;;;;;;5068315;28;20020;-82
2022/08/27 00:18:25;;;;;;;15.23;1.92;;;22.10;76.70;;;;;;5067246;28;20098;-81
2022/08/27 00:20:51;;;;;;;11.88;2.30;;;22.00;76.50;;;;;;5066188;28;20028;-81
2022/08/27 00:23:17;;;;;;;10.18;2.05;;;22.00;77.20;;;;;;5066131;28;20535;-82
2022/08/27 00:25:43;;;;;;;17.23;2.25;;;22.00;76.60;;;;;;5066314;28;20564;-81
2022/08/27 00:28:09;;;;;;;15.32;2.30;;;22.00;76.20;;;;;;5065605;28;20535;-81
2022/08/27 00:30:34;;;;;;;14.07;1.73;;;22.00;77.30;;;;;;5066045;28;20503;-80
2022/08/27 00:33:00;;;;;;;11.75;1.85;;;21.90;76.30;;;;;;5065843;28;20055;-81
2022/08/27 00:35:25;;;;;;;11.60;2.45;;;22.00;76.00;;;;;;5067401;28;20031;-81
2022/08/27 00:37:51;;;;;;;12.63;1.85;;;22.00;77.00;;;;;;5066940;28;20112;-81
2022/08/27 00:40:20;;;;;;;15.73;2.90;;;21.90;77.60;;;;;;5081378;28;20044;-81
2022/08/27 00:42:46;;;;;;;12.15;2.25;;;21.90;78.10;;;;;;5086820;28;20042;-82
2022/08/27 00:45:20;;;;;;;10.80;2.63;;;21.90;78.10;;;;;;5070391;28;20043;-81
2022/08/27 00:47:53;;;;;;;7.57;1.60;;;21.80;77.70;;;;;;5066265;28;20076;-81
2022/08/27 00:50:37;;;;;;;15.88;2.22;;;21.80;77.10;;;;;;5065934;28;20108;-81
2022/08/27 00:53:25;;;;;;;10.73;1.83;;;21.80;77.20;;;;;;5066028;28;20799;-80
2022/08/27 00:56:07;;;;;;;13.80;2.00;;;21.80;77.50;;;;;;5067501;28;20029;-82
2022/08/27 00:58:39;;;;;;;11.48;2.45;;;21.80;78.10;;;;;;5066279;28;20489;-81
2022/08/27 01:01:10;;;;;;;9.98;1.92;;;21.80;77.80;;;;;;5067376;28;20042;-81
2022/08/27 01:03:37;;;;;;;15.00;1.92;;;21.80;77.90;;;;;;5065793;28;20033;-80
2022/08/27 01:06:08;;;;;;;12.05;1.90;;;21.70;78.50;;;;;;5065788;28;20115;-81
2022/08/27 01:08:38;;;;;;;7.43;1.35;;;21.70;78.30;;;;;;5065102;28;20032;-82
2022/08/27 01:11:04;;;;;;;10.45;2.00;;;21.60;78.90;;;;;;5064631;28;20033;-80
2022/08/27 01:13:32;;;;;;;13.45;2.03;;;21.60;79.50;;;;;;5063958;28;21067;-80
2022/08/27 01:15:58;;;;;;;7.30;1.98;;;21.50;79.90;;;;;;5066378;28;20047;-81
2022/08/27 01:18:26;;;;;;;11.07;1.92;;;21.50;80.20;;;;;;5064593;28;20119;-79
2022/08/27 01:21:02;;;;;;;15.18;1.85;;;21.40;81.00;;;;;;5064966;28;20032;-80
2022/08/27 01:24:00;;;;;;;10.32;2.05;;;21.40;82.30;;;;;;5064387;28;20062;-81
2022/08/27 01:26:27;;;;;;;8.10;2.03;;;21.30;82.40;;;;;;5064163;28;20505;-81
2022/08/27 01:28:53;;;;;;;13.85;2.60;;;21.20;82.40;;;;;;5057605;28;20055;-80
2022/08/27 01:31:19;;;;;;;8.88;1.90;;;21.20;82.70;;;;;;5046719;28;20626;-81
2022/08/27 01:34:03;;;;;;;8.52;1.48;;;21.20;83.50;;;;;;5050023;28;20048;-80
2022/08/27 01:36:30;;;;;;;14.80;2.25;;;21.10;83.60;;;;;;5064575;28;20219;-79
2022/08/27 01:38:55;;;;;;;12.05;1.98;;;21.10;84.20;;;;;;5066060;28;20475;-81
2022/08/27 01:41:21;;;;;;;9.30;2.65;;;21.00;84.40;;;;;;5066368;28;20025;-80
2022/08/27 01:43:47;;;;;;;13.52;2.22;;;21.00;85.60;;;;;;5065169;28;20028;-79
2022/08/27 01:46:13;;;;;;;8.65;2.40;;;20.90;85.00;;;;;;5066135;28;20099;-80
2022/08/27 01:48:39;;;;;;;13.90;3.00;;;20.90;84.90;;;;;;5064843;28;20037;-80
2022/08/27 01:51:05;;;;;;;4.40;1.60;;;20.90;85.70;;;;;;5064955;28;20117;-80
2022/08/27 01:53:30;;;;;;;8.60;1.98;;;20.80;86.00;;;;;;5064600;28;20023;-80
2022/08/27 01:55:57;;;;;;;13.10;1.80;;;20.80;86.20;;;;;;5066649;28;20024;-81
2022/08/27 01:58:26;;;;;;;11.27;2.45;;;20.80;86.20;;;;;;5065277;28;20043;-79
2022/08/27 02:00:55;;;;;;;10.48;2.50;;;20.80;86.80;;;;;;5068724;28;20029;-81
2022/08/27 02:03:20;;;;;;;10.10;1.50;;;20.70;87.20;;;;;;5068838;28;20032;-80
2022/08/27 02:05:47;;;;;;;9.05;2.05;;;20.70;87.20;;;;;;5069819;28;20024;-81
2022/08/27 02:08:15;;;;;;;9.23;2.03;;;20.60;86.40;;;;;;5068081;28;20024;-81
2022/08/27 02:10:42;;;;;;;12.50;1.80;;;20.60;86.50;;;;;;5065531;28;20024;-81
2022/08/27 02:13:09;;;;;;;16.92;1.95;;;20.50;86.60;;;;;;5064941;28;20126;-80
2022/08/27 02:15:36;;;;;;;5.22;1.35;;;20.40;87.60;;;;;;5063559;28;20491;-79
2022/08/27 02:18:02;;;;;;;13.48;2.33;;;20.40;87.60;;;;;;5069381;28;20032;-80
2022/08/27 02:20:28;;;;;;;11.45;1.95;;;20.40;87.70;;;;;;5065783;28;20090;-81
2022/08/27 02:22:54;;;;;;;5.55;1.42;;;20.40;88.50;;;;;;5058136;28;20056;-81
2022/08/27 02:25:20;;;;;;;7.05;1.58;;;20.40;88.30;;;;;;5055972;28;20467;-81
2022/08/27 02:27:47;;;;;;;8.50;2.33;;;20.30;89.10;;;;;;5067945;28;20035;-82
2022/08/27 02:30:17;;;;;;;9.02;1.92;;;20.30;89.50;;;;;;5069774;28;20104;-81
2022/08/27 02:32:45;;;;;;;9.80;1.40;;;20.20;89.60;;;;;;5068205;28;20681;-81
2022/08/27 02:35:12;;;;;;;11.27;1.73;;;20.20;88.90;;;;;;5067610;28;20033;-81
2022/08/27 02:37:39;;;;;;;7.57;1.40;;;20.20;88.90;;;;;;5067889;28;20075;-81
2022/08/27 02:40:05;;;;;;;10.50;2.08;;;20.20;88.80;;;;;;5068385;28;20028;-82
2022/08/27 02:42:31;;;;;;;5.30;1.70;;;20.20;87.90;;;;;;5069195;28;20028;-82
2022/08/27 02:44:57;;;;;;;14.40;2.00;;;20.20;89.00;;;;;;5069730;28;20043;-81
2022/08/27 02:47:22;;;;;;;10.65;1.83;;;20.10;89.30;;;;;;5069241;28;20052;-81
2022/08/27 02:49:48;;;;;;;11.10;1.95;;;20.10;89.20;;;;;;5068112;28;20262;-81
2022/08/27 02:52:14;;;;;;;6.78;1.38;;;20.10;89.70;;;;;;5067936;28;20106;-81
2022/08/27 02:54:40;;;;;;;14.15;3.15;;;20.00;89.50;;;;;;5069001;28;20064;-81
2022/08/27 02:57:06;;;;;;;13.88;2.00;;;20.00;89.10;;;;;;5067567;28;20055;-79
2022/08/27 02:59:31;;;;;;;10.85;1.80;;;20.10;88.50;;;;;;5069327;28;20051;-82
2022/08/27 03:01:57;;;;;;;16.92;2.72;;;20.10;87.90;;;;;;5067968;28;20488;-81
2022/08/27 03:04:23;;;;;;;5.38;1.58;;;20.10;87.30;;;;;;5067383;28;20535;-81
2022/08/27 03:06:48;;;;;;;8.40;1.83;;;20.20;87.60;;;;;;5067766;28;20496;-80
2022/08/27 03:09:14;;;;;;;5.07;1.67;;;20.20;88.00;;;;;;5068689;28;20029;-81
2022/08/27 03:11:40;;;;;;;17.95;1.92;;;20.10;88.70;;;;;;5067459;28;20123;-82
2022/08/27 03:14:07;;;;;;;9.32;1.63;;;20.10;88.20;;;;;;5067948;28;20075;-80
2022/08/27 03:16:34;;;;;;;13.88;1.77;;;20.10;88.60;;;;;;5068585;28;20029;-81
2022/08/27 03:19:00;;;;;;;13.27;1.77;;;20.10;88.90;;;;;;5083143;28;20119;-80
2022/08/27 03:21:26;;;;;;;10.63;1.73;;;20.10;89.30;;;;;;5088976;28;20107;-81
2022/08/27 03:23:52;;;;;;;9.98;1.52;;;20.00;89.90;;;;;;5087886;28;20074;-81
2022/08/27 03:26:19;;;;;;;10.88;1.73;;;20.00;89.60;;;;;;5078375;28;20024;-81
2022/08/27 03:28:45;;;;;;;8.95;2.10;;;20.00;89.10;;;;;;5067092;28;20115;-81
2022/08/27 03:31:21;;;;;;;8.00;1.58;;;20.00;88.90;;;;;;5068371;28;20090;-80
2022/08/27 03:33:47;;;;;;;9.70;1.50;;;20.00;89.00;;;;;;5066455;28;20044;-81
2022/08/27 03:36:12;;;;;;;8.55;1.55;;;20.10;89.50;;;;;;5068332;28;20059;-81
2022/08/27 03:38:38;;;;;;;6.10;2.13;;;20.10;89.90;;;;;;5067848;28;20040;-81
2022/08/27 03:41:05;;;;;;;8.20;1.77;;;20.00;90.00;;;;;;5087357;28;20388;-81
2022/08/27 03:43:31;;;;;;;10.32;2.58;;;20.10;90.40;;;;;;5087305;28;20024;-81
2022/08/27 03:45:56;;;;;;;8.15;2.55;;;20.00;90.40;;;;;;5080480;28;20024;-81
2022/08/27 03:48:22;;;;;;;10.75;1.92;;;19.90;90.20;;;;;;5066566;28;20119;-81
2022/08/27 03:50:50;;;;;;;8.25;1.95;;;19.90;90.30;;;;;;5067859;28;20052;-81
2022/08/27 03:53:19;;;;;;;9.85;1.85;;;19.90;90.60;;;;;;5066581;28;20504;-81
2022/08/27 03:55:45;;;;;;;7.82;1.92;;;20.00;90.30;;;;;;5067210;28;20028;-82
2022/08/27 03:58:11;;;;;;;10.55;2.38;;;20.00;90.20;;;;;;5068069;28;20032;-81
2022/08/27 04:00:38;;;;;;;8.90;1.63;;;20.00;90.10;;;;;;5066376;28;20056;-82
2022/08/27 04:03:05;;;;;;;13.90;1.77;;;20.00;90.30;;;;;;5066274;28;20032;-82
2022/08/27 04:05:32;;;;;;;8.02;1.92;;;20.00;90.80;;;;;;5066609;28;20127;-81
2022/08/27 04:07:58;;;;;;;9.30;1.75;;;20.10;90.60;;;;;;5066687;28;20705;-81
2022/08/27 04:10:24;;;;;;;4.78;1.33;;;20.10;90.60;;;;;;5066979;28;20107;-81
2022/08/27 04:12:49;;;;;;;8.23;1.98;;;20.10;90.80;;;;;;5068007;28;20485;-81
2022/08/27 04:15:15;;;;;;;8.52;2.25;;;20.10;90.90;;;;;;5066705;28;20031;-82
2022/08/27 04:17:41;;;;;;;14.82;2.15;;;20.10;91.00;;;;;;5066516;28;20028;-81
2022/08/27 04:20:08;;;;;;;5.18;1.65;;;20.20;91.30;;;;;;5067257;28;20107;-81
2022/08/27 04:22:34;;;;;;;8.82;2.05;;;20.10;91.70;;;;;;5065212;28;20123;-81
2022/08/27 04:25:00;;;;;;;15.70;1.80;;;20.10;91.90;;;;;;5067202;28;20107;-80
2022/08/27 04:27:26;;;;;;;10.77;1.90;;;20.10;92.40;;;;;;5066204;28;20050;-81
2022/08/27 04:29:57;;;;;;;8.40;2.13;;;20.00;92.40;;;;;;5065785;28;20031;-80
2022/08/27 04:32:23;;;;;;;12.48;1.83;;;20.10;92.60;;;;;;5065682;28;20040;-82
2022/08/27 04:34:53;;;;;;;10.77;1.83;;;20.00;92.70;;;;;;5067203;28;20028;-81
2022/08/27 04:37:19;;;;;;;10.82;2.05;;;20.10;92.80;;;;;;5065309;28;20103;-81
2022/08/27 04:39:44;;;;;;;7.00;2.22;;;20.20;92.90;;;;;;5065981;28;20501;-80
2022/08/27 04:42:10;;;;;;;14.65;2.53;;;20.20;93.10;;;;;;5065972;28;20067;-81
2022/08/27 04:44:36;;;;;;;13.23;2.67;;;20.30;93.50;;;;;;5067267;28;20044;-82
2022/08/27 04:47:03;;;;;;;8.32;2.53;;;20.30;93.50;;;;;;5065735;28;20683;-81
2022/08/27 04:49:30;;;;;;;8.38;1.48;;;20.50;93.60;;;;;;5066508;28;20112;-81
2022/08/27 04:51:56;;;;;;;8.60;2.10;;;20.60;93.70;;;;;;5065957;28;20078;-81
2022/08/27 04:54:22;;;;;;;10.32;2.05;;;20.80;93.50;;;;;;5065337;28;20034;-81
2022/08/27 04:56:48;;;;;;;9.30;1.50;;;21.10;93.10;;;;;;5067130;28;20370;-81
2022/08/27 04:59:14;;;;;;;7.72;2.42;;;21.20;92.90;;;;;;5065411;28;20040;-81
2022/08/27 05:01:41;;;;;;;5.57;1.50;;;21.30;93.00;;;;;;5066224;28;20035;-81
2022/08/27 05:04:09;;;;;;;7.00;2.38;;;21.40;93.00;;;;;;5066533;28;20495;-80
2022/08/27 05:06:37;;;;;;;17.70;1.92;;;21.60;93.20;;;;;;5066105;28;20024;-81
2022/08/27 05:09:04;;;;;;;9.63;2.15;;;21.70;93.40;;;;;;5066593;28;20035;-80
2022/08/27 05:11:33;;;;;;;8.35;2.33;;;22.00;93.50;;;;;;5066195;28;20036;-81
2022/08/27 05:14:02;;;;;;;8.27;2.20;;;22.40;92.50;;;;;;5067057;28;20033;-81
2022/08/27 05:16:28;;;;;;;6.57;3.10;;;22.90;91.80;;;;;;5065220;28;20025;-82
2022/08/27 05:18:54;;;;;;;8.38;2.92;;;23.20;91.60;;;;;;5064660;28;20048;-81
2022/08/27 05:21:31;;;;;;;10.95;2.50;;;23.60;91.60;;;;;;5065391;28;20499;-81
2022/08/27 05:23:59;;;;;;;15.45;2.38;;;23.60;92.10;;;;;;5067077;28;20448;-82
2022/08/27 05:26:26;;;;;;;7.60;2.42;;;23.50;92.00;;;;;;5065018;28;20070;-81
2022/08/27 05:28:53;;;;;;;7.25;2.05;;;23.50;92.30;;;;;;5064982;28;20503;-81
2022/08/27 05:31:20;;;;;;;7.22;2.40;;;23.70;92.10;;;;;;5065910;28;20028;-81
2022/08/27 05:33:46;;;;;;;7.57;2.85;;;24.10;91.80;;;;;;5066071;28;20051;-82
2022/08/27 05:36:28;;;;;;;20.48;9.85;;;24.40;91.50;;;;;;5069257;28;20028;-80
2022/08/27 05:38:56;;;;;;;45.30;23.25;;;24.90;90.40;;;;;;5068896;28;20036;-82
2022/08/27 05:41:26;;;;;;;31.48;17.55;;;25.20;89.90;;;;;;5069324;28;20035;-82
2022/08/27 05:43:52;;;;;;;16.98;7.70;;;25.60;88.90;;;;;;5069331;28;20682;-82
2022/08/27 05:46:21;;;;;;;9.82;5.13;;;26.00;87.00;;;;;;5068681;28;20025;-82
2022/08/27 05:48:48;;;;;;;11.82;5.22;;;26.40;85.20;;;;;;5070171;28;20032;-83
2022/08/27 05:51:23;;;;;;;10.02;3.53;;;26.80;84.20;;;;;;5069150;28;20028;-82
2022/08/27 05:53:49;;;;;;;9.98;3.00;;;27.10;82.40;;;;;;5068964;28;20473;-83
2022/08/27 05:56:19;;;;;;;10.55;3.67;;;27.50;80.00;;;;;;5068684;28;20120;-81
2022/08/27 06:01:32;;;;;;;13.18;5.55;;;28.30;78.30;;;;;;5069757;28;20040;-82
2022/08/27 06:03:57;;;;;;;15.10;8.50;;;28.70;77.00;;;;;;5069814;28;20129;-82
2022/08/27 06:06:23;;;;;;;19.30;7.25;;;29.00;77.50;;;;;;5068489;28;20493;-82
2022/08/27 06:08:51;;;;;;;11.65;6.88;;;29.60;74.60;;;;;;5068254;28;20032;-80
2022/08/27 06:11:18;;;;;;;18.55;5.85;;;30.00;73.80;;;;;;5068798;28;20055;-80
2022/08/27 06:13:45;;;;;;;14.52;4.40;;;30.30;73.30;;;;;;5068294;28;20024;-81
2022/08/27 06:16:14;;;;;;;15.98;5.57;;;30.60;73.80;;;;;;5068122;28;20028;-81
2022/08/27 06:18:42;;;;;;;14.73;5.28;;;31.00;70.90;;;;;;5067495;28;20670;-80
2022/08/27 06:21:09;;;;;;;13.90;5.28;;;31.30;69.70;;;;;;5068045;28;20025;-79
2022/08/27 06:23:35;;;;;;;9.38;4.97;;;31.60;68.60;;;;;;5068967;28;20029;-80
2022/08/27 06:26:05;;;;;;;15.95;4.32;;;32.00;65.90;;;;;;5067314;28;20028;-81
2022/08/27 06:28:30;;;;;;;17.63;4.57;;;32.50;63.70;;;;;;5067860;28;20075;-81
2022/08/27 06:31:24;;;;;;;16.13;4.88;;;32.90;57.60;;;;;;5068182;28;20107;-81
2022/08/27 06:33:51;;;;;;;16.27;3.83;;;33.40;53.70;;;;;;5064365;28;20055;-81
2022/08/27 06:36:20;;;;;;;12.63;3.80;;;33.50;54.20;;;;;;5067856;28;20040;-80
2022/08/27 06:38:46;;;;;;;16.75;3.08;;;33.70;53.50;;;;;;5066665;28;20040;-80
2022/08/27 06:41:15;;;;;;;14.90;3.33;;;34.00;51.40;;;;;;5067836;28;20051;-80
2022/08/27 06:43:42;;;;;;;11.68;3.30;;;34.10;51.50;;;;;;5068101;28;20036;-81
2022/08/27 06:46:11;;;;;;;16.70;3.17;;;34.50;50.60;;;;;;5065654;28;20029;-80
2022/08/27 06:48:37;;;;;;;11.52;2.97;;;34.70;48.30;;;;;;5066584;28;20025;-80
2022/08/27 06:51:08;;;;;;;11.60;3.20;;;34.80;47.70;;;;;;5067563;28;20027;-81
2022/08/27 06:53:35;;;;;;;20.23;3.40;;;35.00;47.20;;;;;;5066329;28;20090;-81
2022/08/27 06:56:01;;;;;;;10.52;2.20;;;35.20;46.40;;;;;;5066775;28;20499;-80
2022/08/27 06:58:27;;;;;;;23.65;2.85;;;35.20;46.10;;;;;;5067341;28;20075;-80
2022/08/27 07:00:53;;;;;;;11.65;2.97;;;35.30;46.50;;;;;;5066092;28;20032;-81
2022/08/27 07:03:18;;;;;;;12.15;2.75;;;35.30;46.90;;;;;;5065468;28;20028;-81
2022/08/27 07:05:44;;;;;;;8.90;2.60;;;35.60;45.80;;;;;;5067659;28;20025;-81
2022/08/27 07:08:09;;;;;;;13.77;3.45;;;35.90;44.70;;;;;;5067488;28;20059;-81
2022/08/27 07:10:36;;;;;;;10.07;3.05;;;36.10;44.50;;;;;;5066704;28;20545;-83
2022/08/27 07:13:02;;;;;;;9.73;3.03;;;36.10;44.90;;;;;;5067243;28;20554;-83
2022/08/27 07:15:27;;;;;;;7.63;3.15;;;36.30;44.00;;;;;;5067507;28;20028;-82
2022/08/27 07:17:53;;;;;;;14.23;4.10;;;36.30;43.30;;;;;;5065776;28;20547;-83
2022/08/27 07:20:21;;;;;;;5.85;3.17;;;36.50;43.40;;;;;;5067550;28;20025;-83
2022/08/27 07:22:47;;;;;;;17.05;3.25;;;36.50;42.60;;;;;;5078908;28;20028;-83
2022/08/27 07:25:19;;;;;;;15.88;4.13;;;36.50;41.80;;;;;;5086150;28;20024;-81
2022/08/27 07:27:46;;;;;;;8.18;2.80;;;36.80;42.10;;;;;;5086413;28;20063;-81
2022/08/27 07:30:14;;;;;;;8.63;3.35;;;37.10;41.50;;;;;;5077327;28;20168;-82
2022/08/27 07:32:44;;;;;;;14.07;2.78;;;37.20;40.60;;;;;;5026145;28;1152825;-81
2022/08/27 07:35:10;;;;;;;12.60;2.95;;;37.10;41.20;;;;;;5068022;28;20094;-82
2022/08/27 07:37:38;;;;;;;10.45;3.28;;;37.10;39.10;;;;;;5068062;28;20424;-82
2022/08/27 07:40:06;;;;;;;9.73;2.90;;;37.30;39.50;;;;;;5066819;28;20035;-81
2022/08/27 07:45:16;;;;;;;12.40;3.05;;;37.90;38.80;;;;;;5068288;28;20551;-81
2022/08/27 07:47:42;;;;;;;15.95;2.80;;;37.90;38.20;;;;;;5067721;28;20028;-82
2022/08/27 07:50:08;;;;;;;11.80;2.90;;;37.90;38.70;;;;;;5066137;28;20031;-82
2022/08/27 07:52:34;;;;;;;9.70;3.47;;;38.20;38.70;;;;;;5068146;28;20021;-81
2022/08/27 07:55:00;;;;;;;14.40;3.00;;;38.50;38.90;;;;;;5066591;28;20024;-82
2022/08/27 07:57:26;;;;;;;21.52;3.15;;;38.60;38.50;;;;;;5065141;28;20119;-81
2022/08/27 07:59:52;;;;;;;7.85;3.05;;;38.80;38.40;;;;;;5066734;28;20131;-81
2022/08/27 08:02:17;;;;;;;20.88;3.30;;;39.20;36.80;;;;;;5066033;28;20485;-81
2022/08/27 08:04:44;;;;;;;8.07;2.70;;;38.70;36.10;;;;;;5066661;28;20032;-81
2022/08/27 08:07:09;;;;;;;12.18;3.45;;;38.60;36.50;;;;;;5065958;28;20082;-81
2022/08/27 08:09:35;;;;;;;13.05;3.03;;;38.90;37.20;;;;;;5066694;28;20036;-82
2022/08/27 08:12:01;;;;;;;7.97;2.72;;;39.00;37.40;;;;;;5066588;28;20271;-81
2022/08/27 08:14:29;;;;;;;8.35;3.05;;;39.10;37.50;;;;;;5067798;28;20446;-81
2022/08/27 08:16:59;;;;;;;15.52;3.28;;;39.30;36.50;;;;;;5066591;28;20081;-81
2022/08/27 08:19:24;;;;;;;10.50;3.28;;;39.20;35.20;;;;;;5066341;28;20048;-81
2022/08/27 08:21:50;;;;;;;11.85;3.22;;;39.60;35.90;;;;;;5066536;28;20036;-81
2022/08/27 08:24:17;;;;;;;16.23;3.60;;;39.80;36.00;;;;;;5065664;28;20039;-81
2022/08/27 08:26:43;;;;;;;10.30;3.08;;;39.60;34.30;;;;;;5065465;28;20405;-82
2022/08/27 08:29:09;;;;;;;20.35;3.88;;;39.10;34.40;;;;;;5065987;28;20031;-81
2022/08/27 08:31:34;;;;;;;16.27;3.50;;;39.20;35.20;;;;;;5064951;28;20077;-82
2022/08/27 08:34:00;;;;;;;15.32;3.83;;;39.60;35.60;;;;;;5067198;28;20497;-81
2022/08/27 08:36:26;;;;;;;11.35;3.05;;;39.90;35.80;;;;;;5065938;28;20105;-82
2022/08/27 08:38:53;;;;;;;15.07;3.38;;;40.10;35.80;;;;;;5065106;28;20554;-80
2022/08/27 08:41:41;;;;;;;15.02;2.75;;;39.90;34.10;;;;;;5065569;28;20416;-81
2022/08/27 08:44:22;;;;;;;13.32;3.25;;;40.10;34.00;;;;;;5067118;28;20039;-81
2022/08/27 08:46:55;;;;;;;14.77;3.15;;;40.10;34.90;;;;;;5065067;28;20070;-81
2022/08/27 08:49:45;;;;;;;10.38;3.17;;;40.00;34.30;;;;;;5065768;28;20025;-81
2022/08/27 08:52:26;;;;;;;18.60;3.78;;;39.90;35.40;;;;;;5067259;28;20021;-81
2022/08/27 08:54:58;;;;;;;11.60;3.85;;;39.80;35.20;;;;;;5066686;28;20026;-80
2022/08/27 08:57:29;;;;;;;13.88;3.42;;;40.00;35.10;;;;;;5065536;28;20136;-83
2022/08/27 09:00:08;;;;;;;12.20;3.17;;;40.20;35.00;;;;;;5064961;28;20032;-81
2022/08/27 09:02:34;;;;;;;10.32;3.35;;;40.40;35.00;;;;;;5065405;28;20021;-81
2022/08/27 09:05:06;;;;;;;5.20;2.65;;;40.30;34.70;;;;;;5064972;28;20063;-81
2022/08/27 09:07:44;;;;;;;11.38;3.50;;;40.60;35.10;;;;;;5064932;28;20031;-82
2022/08/27 09:10:51;;;;;;;14.07;3.60;;;40.70;34.80;;;;;;5064997;28;20040;-81
2022/08/27 09:13:28;;;;;;;13.65;3.38;;;40.70;34.20;;;;;;5064757;28;20039;-82
2022/08/27 09:15:58;;;;;;;12.98;2.85;;;40.70;33.70;;;;;;5065141;28;20037;-80
2022/08/27 09:18:23;;;;;;;9.77;2.95;;;40.40;34.10;;;;;;5066070;28;20114;-81
2022/08/27 09:20:53;;;;;;;14.45;3.72;;;40.40;34.40;;;;;;5066882;28;20548;-82
2022/08/27 09:23:41;;;;;;;14.40;3.40;;;40.30;34.50;;;;;;5064652;28;20429;-81
2022/08/27 09:26:21;;;;;;;12.32;4.00;;;40.40;32.10;;;;;;5066827;28;20481;-81
2022/08/27 09:31:37;;;;;;;15.77;3.83;;;40.40;34.10;;;;;;5066214;28;20063;-81
2022/08/27 09:34:04;;;;;;;9.68;3.05;;;40.60;34.70;;;;;;5066330;28;20120;-81
2022/08/27 09:36:29;;;;;;;12.73;4.18;;;40.70;33.90;;;;;;5066790;28;20036;-80
2022/08/27 09:39:01;;;;;;;12.38;4.00;;;40.30;33.00;;;;;;5064750;28;20056;-80
2022/08/27 09:41:31;;;;;;;11.88;4.00;;;40.30;34.70;;;;;;5065223;28;20115;-81
2022/08/27 09:44:02;;;;;;;17.40;3.33;;;40.20;34.50;;;;;;5064859;28;20028;-81
2022/08/27 09:46:28;;;;;;;20.92;3.35;;;40.50;33.40;;;;;;5065661;28;20021;-81
2022/08/27 09:48:54;;;;;;;13.23;3.38;;;40.50;34.00;;;;;;5064453;28;20028;-80
2022/08/27 09:51:24;;;;;;;12.45;2.90;;;40.60;34.70;;;;;;5064722;28;20024;-82
2022/08/27 09:53:54;;;;;;;13.75;3.38;;;40.60;33.90;;;;;;5064300;28;20083;-81
2022/08/27 09:56:33;;;;;;;14.27;3.58;;;40.60;33.50;;;;;;5064767;28;20024;-81
2022/08/27 09:59:01;;;;;;;7.20;2.08;;;40.70;33.00;;;;;;5065844;28;20059;-81
2022/08/27 10:01:31;;;;;;;8.73;2.80;;;40.70;32.90;;;;;;5064444;28;20574;-82
2022/08/27 10:04:06;;;;;;;8.88;2.95;;;40.80;33.30;;;;;;5066058;28;20139;-81
2022/08/27 10:06:32;;;;;;;12.77;2.97;;;41.10;33.70;;;;;;5064745;28;20062;-81
2022/08/27 10:09:09;;;;;;;6.43;2.78;;;41.40;33.40;;;;;;5065994;28;20032;-81
2022/08/27 10:11:40;;;;;;;11.20;2.97;;;40.90;32.40;;;;;;5065624;28;20031;-82
2022/08/27 10:14:12;;;;;;;13.00;2.53;;;40.50;32.80;;;;;;5064546;28;20031;-81
2022/08/27 10:16:51;;;;;;;8.73;2.80;;;40.20;32.40;;;;;;5065654;28;20068;-81
2022/08/27 10:19:36;;;;;;;16.08;2.53;;;40.10;33.10;;;;;;5064279;28;20036;-82
2022/08/27 10:22:20;;;;;;;16.52;3.53;;;39.80;33.30;;;;;;5068418;28;20017;-82
2022/08/27 10:24:48;;;;;;;8.20;2.55;;;39.00;34.10;;;;;;5068331;28;20040;-82
2022/08/27 10:27:31;;;;;;;12.60;3.25;;;38.10;34.60;;;;;;5068289;28;20029;-82
2022/08/27 10:30:03;;;;;;;7.72;2.20;;;37.80;35.90;;;;;;5069490;28;20020;-81
2022/08/27 10:32:43;;;;;;;16.60;2.00;;;37.50;36.10;;;;;;5068063;28;20056;-81
2022/08/27 10:35:32;;;;;;;11.30;2.35;;;37.30;36.80;;;;;;5069609;28;20473;-82
2022/08/27 10:38:09;;;;;;;8.10;2.75;;;36.80;35.30;;;;;;5069460;28;20051;-81
2022/08/27 10:41:04;;;;;;;19.88;2.88;;;36.30;36.10;;;;;;5069524;28;20029;-81
2022/08/27 10:43:48;;;;;;;14.90;2.83;;;35.80;37.60;;;;;;5068108;28;20056;-81
2022/08/27 10:46:51;;;;;;;8.57;2.47;;;35.60;37.50;;;;;;5067494;28;20431;-82
2022/08/27 10:49:51;;;;;;;8.65;1.98;;;35.50;36.60;;;;;;5067979;28;20169;-80
2022/08/27 10:52:28;;;;;;;12.27;2.42;;;35.10;37.60;;;;;;5068151;28;20064;-81
2022/08/27 10:54:54;;;;;;;21.25;2.70;;;35.00;39.20;;;;;;5067357;28;20141;-82
2022/08/27 10:57:31;;;;;;;7.97;2.67;;;34.90;38.30;;;;;;5067686;28;20081;-82
2022/08/27 11:00:00;;;;;;;4.18;1.90;;;34.90;38.50;;;;;;5067226;28;20040;-81
2022/08/27 11:02:43;;;;;;;12.50;2.70;;;35.00;39.20;;;;;;5078610;28;20095;-82
2022/08/27 11:05:16;;;;;;;10.48;2.22;;;35.10;39.20;;;;;;5088141;28;20032;-80
2022/08/27 11:07:52;;;;;;;13.63;2.25;;;35.10;39.10;;;;;;5089077;28;20085;-82
2022/08/27 11:10:24;;;;;;;12.73;2.38;;;35.10;38.80;;;;;;5077906;28;20028;-82
2022/08/27 11:12:54;;;;;;;11.20;1.70;;;34.90;38.60;;;;;;5067647;28;20032;-81
2022/08/27 11:15:27;;;;;;;10.70;2.10;;;34.80;39.00;;;;;;5067094;28;20391;-81
2022/08/27 11:18:05;;;;;;;7.97;2.15;;;34.80;37.00;;;;;;5068416;28;20032;-81
2022/08/27 11:20:39;;;;;;;9.07;2.00;;;34.60;38.30;;;;;;5069213;28;20420;-81
2022/08/27 11:23:22;;;;;;;12.95;2.75;;;34.50;38.80;;;;;;5067455;28;20054;-82
2022/08/27 11:25:55;;;;;;;15.60;2.50;;;34.50;38.80;;;;;;5067117;28;20020;-81
2022/08/27 11:28:44;;;;;;;10.75;1.88;;;34.40;36.40;;;;;;5067639;28;20029;-82
2022/08/27 11:31:34;;;;;;;13.88;2.83;;;34.10;37.60;;;;;;5068651;28;20028;-81
2022/08/27 11:34:16;;;;;;;10.90;2.20;;;34.10;38.60;;;;;;5065349;28;20039;-82
2022/08/27 11:37:15;;;;;;;15.02;2.40;;;34.20;37.60;;;;;;5068711;28;20028;-81
2022/08/27 11:40:16;;;;;;;8.77;2.05;;;34.20;37.60;;;;;;5068362;28;20040;-81
2022/08/27 11:42:44;;;;;;;8.20;2.20;;;34.10;38.20;;;;;;5066800;28;20042;-81
2022/08/27 11:45:38;;;;;;;14.85;2.05;;;34.10;38.80;;;;;;5066701;28;20033;-82
2022/08/27 11:48:15;;;;;;;12.43;2.13;;;34.10;39.30;;;;;;5067199;28;20025;-80
2022/08/27 11:51:03;;;;;;;11.30;2.42;;;34.20;39.40;;;;;;5079532;28;20032;-81
2022/08/27 11:53:32;;;;;;;15.25;2.03;;;34.40;39.90;;;;;;5087473;28;20031;-82
2022/08/27 11:56:28;;;;;;;15.63;2.88;;;34.50;39.00;;;;;;5088231;28;20054;-81
2022/08/27 11:58:56;;;;;;;21.20;2.75;;;34.50;37.80;;;;;;5060467;28;20132;-81
2022/08/27 12:01:30;;;;;;;12.57;2.88;;;34.60;38.00;;;;;;5068310;28;20029;-82
2022/08/27 12:04:17;;;;;;;14.68;2.63;;;34.60;39.10;;;;;;5067796;28;20436;-81
2022/08/27 12:06:49;;;;;;;11.38;2.00;;;34.70;39.60;;;;;;5067586;28;20031;-82
2022/08/27 12:09:19;;;;;;;15.82;2.50;;;34.70;39.20;;;;;;5066409;28;20028;-82
2022/08/27 12:12:15;;;;;;;10.57;2.30;;;34.80;38.30;;;;;;5066497;28;20527;-82
2022/08/27 12:14:56;;;;;;;12.88;2.55;;;34.80;38.70;;;;;;5067341;28;20036;-82
2022/08/27 12:17:40;;;;;;;7.55;2.10;;;34.70;39.50;;;;;;5066316;28;20052;-81
2022/08/27 12:20:22;;;;;;;10.25;2.08;;;34.60;39.50;;;;;;5066719;28;20036;-81
2022/08/27 12:25:35;;;;;;;9.02;1.70;;;34.60;38.80;;;;;;5068976;28;20083;-83
2022/08/27 12:28:04;;;;;;;13.32;3.40;;;34.70;39.70;;;;;;5067148;28;20020;-81
2022/08/27 12:30:40;;;;;;;11.45;1.70;;;34.60;39.70;;;;;;5066027;28;20033;-82
2022/08/27 12:33:18;;;;;;;13.57;2.55;;;34.50;39.50;;;;;;5066261;28;20064;-82
2022/08/27 12:35:47;;;;;;;8.23;2.83;;;34.50;39.30;;;;;;5068066;28;20029;-82
2022/08/27 12:38:18;;;;;;;9.52;2.22;;;34.40;40.00;;;;;;5066157;28;20126;-82
2022/08/27 12:40:52;;;;;;;14.48;2.55;;;34.30;40.70;;;;;;5065845;28;20125;-80
2022/08/27 12:43:24;;;;;;;11.87;2.63;;;34.20;39.50;;;;;;5067114;28;20405;-82
2022/08/27 12:45:59;;;;;;;10.43;2.55;;;34.20;39.70;;;;;;5052242;28;20270;-83
2022/08/27 12:48:55;;;;;;;15.60;2.10;;;34.20;39.30;;;;;;5066132;28;20064;-82
2022/08/27 12:51:30;;;;;;;12.38;2.08;;;34.10;40.60;;;;;;5067289;28;20044;-83
2022/08/27 12:54:01;;;;;;;12.93;2.70;;;34.10;41.10;;;;;;5068008;28;20477;-83
2022/08/27 12:56:53;;;;;;;19.00;2.67;;;34.10;41.00;;;;;;5066520;28;20028;-83
2022/08/27 12:59:37;;;;;;;14.95;2.20;;;34.10;41.30;;;;;;5058637;28;20094;-81
2022/08/27 13:02:15;;;;;;;10.02;2.47;;;34.10;40.00;;;;;;5086039;28;20016;-82
2022/08/27 13:04:42;;;;;;;5.00;1.60;;;34.20;40.40;;;;;;5088485;28;20544;-82
2022/08/27 13:07:08;;;;;;;19.60;2.45;;;34.20;40.20;;;;;;5071161;28;20130;-83
2022/08/27 13:09:36;;;;;;;15.38;2.65;;;34.10;40.30;;;;;;5066367;28;20043;-81